Time;durP1;ratioP1;P1;durP2;ratioP2;P2;SDS_P1;SDS_P2;PMS_P1;PMS_P2;Temp;Humidity;BMP_temperature;BMP_pressure;BME280_temperature;BME280_humidity;BME280_pressure;Samples;Min_cycle;Max_cycle;Signal;HPM_P1;HPM_P2
2021/07/19 00:01:54;;;;;;;13.07;11.80;;;;;;;20.70;68.17;98571.16;4845472;29;20061;-76
2021/07/19 00:04:20;;;;;;;13.52;11.95;;;;;;;20.61;68.74;98565.94;4845564;29;20053;-76
2021/07/19 00:06:46;;;;;;;14.90;12.05;;;;;;;20.47;68.34;98552.50;4830277;29;20081;-76
2021/07/19 00:09:12;;;;;;;13.98;12.77;;;;;;;20.43;69.20;98548.53;4830091;29;20189;-76
2021/07/19 00:11:38;;;;;;;13.18;11.98;;;;;;;20.42;69.17;98561.25;4830258;29;20049;-76
2021/07/19 00:14:04;;;;;;;13.55;12.18;;;;;;;20.44;69.10;98559.16;4860550;29;20061;-79
2021/07/19 00:16:30;;;;;;;13.20;11.70;;;;;;;20.46;69.06;98564.38;4845609;29;21194;-76
2021/07/19 00:18:56;;;;;;;13.23;12.13;;;;;;;20.40;69.07;98557.91;4829992;29;20073;-76
2021/07/19 00:21:22;;;;;;;13.65;12.38;;;;;;;20.41;68.93;98570.44;4845051;29;20549;-76
2021/07/19 00:23:48;;;;;;;13.82;12.45;;;;;;;20.39;69.34;98569.81;4845312;29;20056;-77
2021/07/19 00:26:14;;;;;;;15.20;13.02;;;;;;;20.37;69.29;98574.59;4829710;29;20477;-77
2021/07/19 00:28:41;;;;;;;15.45;14.02;;;;;;;20.35;69.52;98582.13;4844882;29;20059;-78
2021/07/19 00:31:06;;;;;;;15.13;13.48;;;;;;;20.31;69.90;98581.69;4829801;29;20136;-75
2021/07/19 00:33:33;;;;;;;16.55;14.18;;;;;;;20.33;69.55;98573.34;4814858;29;20439;-76
2021/07/19 00:36:05;;;;;;;17.08;14.20;;;;;;;20.38;69.75;98581.69;4831416;29;20064;-76
2021/07/19 00:38:31;;;;;;;14.00;12.50;;;;;;;20.33;69.54;98573.34;4829527;29;20049;-76
2021/07/19 00:41:08;;;;;;;14.50;13.10;;;;;;;20.41;69.64;98578.56;4832538;29;20568;-77
2021/07/19 00:43:34;;;;;;;15.95;12.45;;;;;;;20.42;69.61;98580.25;4829563;29;20129;-77
2021/07/19 00:46:00;;;;;;;14.90;13.60;;;;;;;20.45;69.53;98570.84;4830012;29;20089;-76
2021/07/19 00:48:26;;;;;;;15.00;13.60;;;;;;;20.57;69.28;98586.41;4829979;29;20060;-76
2021/07/19 00:50:52;;;;;;;15.60;13.80;;;;;;;20.54;69.16;98575.09;4814570;29;20135;-76
2021/07/19 00:53:19;;;;;;;16.00;14.38;;;;;;;20.63;69.26;98594.75;4830313;29;20501;-77
2021/07/19 00:55:47;;;;;;;15.82;13.90;;;;;;;20.64;69.29;98594.53;4829620;29;20163;-77
2021/07/19 00:58:15;;;;;;;15.32;13.93;;;;;;;20.60;69.41;98591.38;4829791;29;20053;-77
2021/07/19 01:00:44;;;;;;;16.08;14.25;;;;;;;20.60;69.29;98591.38;4845000;29;20398;-77
2021/07/19 01:03:12;;;;;;;17.83;15.68;;;;;;;20.56;69.73;98590.13;4830666;29;20061;-77
2021/07/19 01:05:42;;;;;;;16.33;14.13;;;;;;;20.61;69.26;98593.09;4830201;29;20105;-77
2021/07/19 01:08:08;;;;;;;15.95;14.52;;;;;;;20.51;69.90;98592.63;4844455;29;20041;-76
2021/07/19 01:10:36;;;;;;;15.05;13.60;;;;;;;20.42;70.09;98588.38;4829387;29;20049;-77
2021/07/19 01:13:04;;;;;;;16.35;14.45;;;;;;;20.58;69.88;98588.06;4844058;29;20501;-78
2021/07/19 01:15:33;;;;;;;15.73;14.27;;;;;;;20.68;69.30;98594.97;4829893;29;20528;-77
2021/07/19 01:18:00;;;;;;;14.45;13.05;;;;;;;20.76;69.23;98598.34;4859461;29;20037;-76
2021/07/19 01:21:04;;;;;;;14.50;13.10;;;;;;;20.87;68.93;98596.88;4844735;29;20053;-77
2021/07/19 01:23:50;;;;;;;15.32;13.75;;;;;;;20.88;68.67;98595.00;4859481;29;20516;-77
2021/07/19 01:26:31;;;;;;;15.60;14.30;;;;;;;20.94;68.51;98605.03;4859302;29;20540;-77
2021/07/19 01:28:59;;;;;;;15.82;14.32;;;;;;;20.84;69.04;98594.59;4844544;29;20092;-77
2021/07/19 01:31:29;;;;;;;15.13;13.73;;;;;;;20.85;69.08;98599.81;4814221;29;20108;-77
2021/07/19 01:34:06;;;;;;;;;;;;;;;20.98;68.82;98604.41;4829993;29;20049;-78
2021/07/19 01:36:40;;;;;;;14.90;13.50;;;;;;;20.99;68.50;98606.09;4829727;29;19955;-78
2021/07/19 01:39:32;;;;;;;15.35;13.85;;;;;;;21.03;68.71;98607.34;4847049;29;20514;-78
2021/07/19 01:42:01;;;;;;;15.45;13.90;;;;;;;21.05;68.60;98610.69;4829965;29;20056;-77
2021/07/19 01:44:28;;;;;;;14.52;13.02;;;;;;;21.06;68.65;98606.94;4874976;29;20094;-78
2021/07/19 01:46:54;;;;;;;15.95;14.45;;;;;;;21.13;67.99;98595.22;4843765;29;20536;-78
2021/07/19 01:49:22;;;;;;;15.77;14.18;;;;;;;21.24;68.10;98608.19;4814230;29;20506;-78
2021/07/19 01:51:48;;;;;;;18.73;14.90;;;;;;;21.13;68.10;98604.19;4843990;29;20509;-79
2021/07/19 01:54:15;;;;;;;16.75;15.20;;;;;;;21.09;68.14;98606.50;4813654;29;20383;-80
2021/07/19 01:56:43;;;;;;;21.63;15.80;;;;;;;21.09;68.32;98617.38;4859208;29;20205;-77
2021/07/19 01:59:12;;;;;;;16.88;14.65;;;;;;;21.12;68.19;98607.16;4814632;29;20053;-78
2021/07/19 02:01:46;;;;;;;16.65;14.88;;;;;;;21.10;68.07;98613.63;4846470;29;20383;-82
2021/07/19 02:04:12;;;;;;;16.55;14.98;;;;;;;21.20;67.98;98620.53;4828856;29;20526;-82
2021/07/19 02:06:39;;;;;;;16.05;14.45;;;;;;;21.17;67.71;98607.34;4828662;29;20062;-77
2021/07/19 02:09:08;;;;;;;19.80;15.48;;;;;;;21.25;67.62;98618.88;4829297;29;20422;-79
2021/07/19 02:11:43;;;;;;;15.95;14.45;;;;;;;21.18;67.51;98614.47;4831442;29;20489;-90
2021/07/19 02:14:12;;;;;;;16.48;14.90;;;;;;;21.28;67.27;98628.47;4829409;29;20045;-83
2021/07/19 02:16:45;;;;;;;16.20;14.57;;;;;;;21.22;67.40;98610.28;4844165;29;20096;-83
2021/07/19 02:19:13;;;;;;;16.70;14.88;;;;;;;21.33;67.09;98617.84;4829221;29;20056;-81
2021/07/19 02:21:39;;;;;;;17.40;15.80;;;;;;;21.42;67.07;98619.28;4828838;29;20056;-79
2021/07/19 02:24:24;;;;;;;16.85;15.25;;;;;;;21.48;67.28;98626.63;4817361;29;20056;-77
2021/07/19 02:27:01;;;;;;;20.52;14.77;;;;;;;21.39;67.62;98622.44;4816459;29;20057;-75
2021/07/19 02:29:29;;;;;;;17.20;14.90;;;;;;;21.32;67.60;98627.00;4828839;29;20417;-75
2021/07/19 02:31:55;;;;;;;16.42;14.82;;;;;;;21.25;68.20;98637.88;4813397;29;20053;-75
2021/07/19 02:34:22;;;;;;;15.73;14.23;;;;;;;21.05;68.83;98626.97;4843471;29;20140;-76
2021/07/19 02:36:51;;;;;;;17.38;14.82;;;;;;;21.06;68.94;98644.97;4829341;29;20461;-76
2021/07/19 02:39:18;;;;;;;17.30;14.38;;;;;;;21.09;68.81;98649.97;4812492;29;20092;-75
2021/07/19 02:41:46;;;;;;;15.98;14.27;;;;;;;21.24;68.67;98646.22;4843036;29;20186;-76
2021/07/19 02:44:13;;;;;;;17.55;14.02;;;;;;;21.32;68.16;98641.41;4827976;29;20228;-76
2021/07/19 02:47:18;;;;;;;16.63;14.68;;;;;;;21.58;67.97;98662.38;4855043;29;20053;-75
2021/07/19 02:49:47;;;;;;;15.13;13.65;;;;;;;21.75;67.57;98659.22;4813816;29;20219;-76
2021/07/19 02:52:13;;;;;;;19.42;15.80;;;;;;;21.79;67.24;98649.59;4828286;29;20050;-75
2021/07/19 02:54:40;;;;;;;16.42;14.82;;;;;;;21.82;66.94;98660.88;4830738;29;20065;-76
2021/07/19 02:57:08;;;;;;;15.10;13.75;;;;;;;21.98;66.87;98656.88;4846865;29;20409;-76
2021/07/19 02:59:38;;;;;;;15.93;14.27;;;;;;;22.19;66.15;98665.84;4832516;29;20105;-76
2021/07/19 03:02:04;;;;;;;16.33;14.70;;;;;;;22.28;66.05;98664.56;4831068;29;20132;-76
2021/07/19 03:04:31;;;;;;;15.55;14.13;;;;;;;22.39;65.41;98663.91;4861705;29;20050;-77
2021/07/19 03:06:59;;;;;;;15.55;14.10;;;;;;;22.52;65.33;98671.16;4831013;29;20061;-75
2021/07/19 03:09:26;;;;;;;16.40;14.35;;;;;;;22.53;64.55;98668.25;4845029;29;20085;-76
2021/07/19 03:11:52;;;;;;;15.27;13.75;;;;;;;22.47;64.59;98668.28;4813895;29;20109;-75
2021/07/19 03:14:24;;;;;;;14.45;12.93;;;;;;;22.47;64.88;98673.72;4846826;29;20437;-76
2021/07/19 03:17:01;;;;;;;16.58;14.88;;;;;;;22.51;64.94;98681.22;4831567;29;20417;-76
2021/07/19 03:19:27;;;;;;;17.33;15.37;;;;;;;22.59;64.79;98676.59;4845437;29;20143;-76
2021/07/19 03:21:54;;;;;;;16.85;15.07;;;;;;;22.61;64.68;98672.63;4845487;29;20430;-76
2021/07/19 03:24:36;;;;;;;15.98;14.43;;;;;;;22.77;64.47;98684.91;4832422;29;20395;-75
2021/07/19 03:27:03;;;;;;;21.02;14.65;;;;;;;22.74;64.38;98679.88;4861198;29;20152;-76
2021/07/19 03:29:29;;;;;;;16.02;14.32;;;;;;;22.87;64.17;98695.31;4861376;29;20049;-76
2021/07/19 03:32:13;;;;;;;16.58;14.18;;;;;;;22.94;63.81;98694.28;4848247;29;20057;-76
2021/07/19 03:34:39;;;;;;;17.48;13.65;;;;;;;23.06;63.65;98693.59;4845703;29;20049;-75
2021/07/19 03:37:08;;;;;;;17.83;16.07;;;;;;;23.15;63.47;98694.97;4845950;29;20046;-75
2021/07/19 03:39:38;;;;;;;16.55;13.90;;;;;;;23.24;63.51;98701.81;4876076;29;20060;-74
2021/07/19 03:42:05;;;;;;;15.60;13.88;;;;;;;23.27;63.32;98704.94;4830388;29;20041;-76
2021/07/19 03:44:35;;;;;;;16.52;13.38;;;;;;;23.37;63.20;98696.28;4845819;29;20049;-76
2021/07/19 03:47:03;;;;;;;22.30;13.52;;;;;;;23.59;62.54;98704.13;4860862;29;20133;-76
2021/07/19 03:49:30;;;;;;;16.98;14.15;;;;;;;23.72;61.98;98704.84;4845548;29;20135;-88
2021/07/19 03:51:56;;;;;;;23.77;15.23;;;;;;;23.89;62.00;98698.84;4840909;29;20102;-79
2021/07/19 03:54:22;;;;;;;18.63;15.25;;;;;;;23.97;61.59;98690.38;4845447;29;20144;-78
2021/07/19 03:56:50;;;;;;;18.85;13.60;;;;;;;24.20;61.10;98700.63;4830926;29;20049;-78
2021/07/19 03:59:17;;;;;;;16.42;14.23;;;;;;;24.29;60.52;98699.25;4815380;29;20041;-75
2021/07/19 04:01:43;;;;;;;15.25;13.65;;;;;;;24.26;60.78;98704.31;4860803;29;20053;-79
2021/07/19 04:04:16;;;;;;;19.13;13.90;;;;;;;24.34;60.23;98695.88;4842212;29;20045;-81
2021/07/19 04:06:55;;;;;;;14.55;13.10;;;;;;;24.49;60.10;98700.97;4805347;29;20056;-80
2021/07/19 04:09:21;;;;;;;16.75;14.02;;;;;;;24.67;59.23;98693.59;4860785;29;20064;-81
2021/07/19 04:11:50;;;;;;;25.33;14.70;;;;;;;24.82;58.79;98703.28;4861496;29;20063;-78
2021/07/19 04:14:17;;;;;;;15.88;14.18;;;;;;;24.91;58.51;98691.78;4845206;29;20516;-78
2021/07/19 04:16:44;;;;;;;14.52;13.13;;;;;;;25.02;58.25;98703.84;4860917;29;20046;-82
2021/07/19 04:19:12;;;;;;;20.02;13.90;;;;;;;24.94;57.67;98707.75;4846208;29;20061;-81
2021/07/19 04:21:39;;;;;;;16.25;13.00;;;;;;;24.81;58.09;98710.63;4846175;29;20060;-77
2021/07/19 04:24:09;;;;;;;17.05;12.55;;;;;;;24.77;58.12;98701.22;4845323;29;20409;-80
2021/07/19 04:26:39;;;;;;;10.88;9.63;;;;;;;24.82;56.97;98704.09;4845999;29;20057;-79
2021/07/19 04:29:08;;;;;;;13.73;10.43;;;;;;;24.99;56.44;98706.22;4827858;29;20060;-78
2021/07/19 04:31:44;;;;;;;11.68;10.18;;;;;;;25.01;56.86;98702.19;4838236;29;20073;-79
2021/07/19 04:34:33;;;;;;;19.00;16.00;;;;;;;25.16;56.96;98697.16;4860849;29;20041;-78
2021/07/19 04:37:29;;;;;;;11.57;9.30;;;;;;;25.37;55.92;98711.38;4830777;29;20045;-81
2021/07/19 04:39:56;;;;;;;16.33;9.90;;;;;;;25.38;55.17;98702.91;4845223;29;20109;-81
2021/07/19 04:42:26;;;;;;;10.00;9.10;;;;;;;25.47;55.05;98708.06;4860055;29;20190;-76
2021/07/19 04:44:52;;;;;;;12.02;8.52;;;;;;;25.39;54.99;98693.66;4874622;29;20128;-76
2021/07/19 04:47:18;;;;;;;9.68;8.77;;;;;;;25.53;54.88;98704.38;4859689;29;20053;-77
2021/07/19 04:49:46;;;;;;;10.00;8.27;;;;;;;25.52;55.06;98689.03;4827981;29;20145;-78
2021/07/19 04:52:14;;;;;;;9.68;8.85;;;;;;;25.78;54.62;98694.09;4827763;29;20125;-79
2021/07/19 04:54:42;;;;;;;12.50;8.38;;;;;;;26.05;54.54;98701.84;4857466;29;20497;-79
2021/07/19 04:57:13;;;;;;;8.90;8.00;;;;;;;26.07;53.44;98703.28;4842555;29;20080;-78
2021/07/19 04:59:48;;;;;;;11.87;10.00;;;;;;;25.95;53.92;98701.59;4812622;29;20066;-78
2021/07/19 05:02:18;;;;;;;15.95;10.45;;;;;;;26.00;54.11;98693.50;4814156;29;20298;-80
2021/07/19 05:04:46;;;;;;;10.55;9.23;;;;;;;26.10;53.99;98683.63;4828651;29;20057;-80
2021/07/19 05:07:32;;;;;;;15.00;11.52;;;;;;;26.34;53.75;98695.38;4857481;29;20053;-80
2021/07/19 05:10:00;;;;;;;12.13;10.32;;;;;;;26.47;52.74;98690.72;4857441;29;20413;-78
2021/07/19 05:12:26;;;;;;;12.80;10.33;;;;;;;26.44;52.41;98699.41;4842300;29;20081;-77
2021/07/19 05:14:52;;;;;;;13.25;11.13;;;;;;;26.19;51.82;98686.81;4812046;29;20433;-80
2021/07/19 05:17:21;;;;;;;16.93;11.83;;;;;;;26.17;52.39;98678.00;4827091;29;20049;-82
2021/07/19 05:19:55;;;;;;;21.70;12.65;;;;;;;26.40;52.69;98693.56;4827755;29;20057;-82
2021/07/19 05:22:26;;;;;;;17.42;10.20;;;;;;;26.57;51.85;98693.69;4856922;29;20096;-80
2021/07/19 05:25:00;;;;;;;13.45;9.70;;;;;;;26.63;51.21;98699.06;4842338;29;20536;-79
2021/07/19 05:28:06;;;;;;;11.68;9.32;;;;;;;26.61;50.71;98694.88;4856994;29;20057;-82
2021/07/19 05:30:42;;;;;;;16.75;8.38;;;;;;;26.68;50.87;98695.56;4857596;29;20049;-78
2021/07/19 05:33:09;;;;;;;12.68;8.57;;;;;;;26.73;50.20;98701.16;4841740;29;20069;-78
2021/07/19 05:35:35;;;;;;;13.38;8.93;;;;;;;26.71;50.06;98695.09;4826184;29;20561;-78
2021/07/19 05:38:02;;;;;;;20.10;8.02;;;;;;;26.77;50.22;98696.84;4841025;29;20525;-77
2021/07/19 05:40:31;;;;;;;13.00;8.80;;;;;;;26.86;50.04;98697.31;4856728;29;20053;-79
2021/07/19 05:43:02;;;;;;;14.23;8.38;;;;;;;27.09;49.69;98699.13;4841342;29;20054;-77
2021/07/19 05:45:30;;;;;;;16.48;7.60;;;;;;;27.24;48.57;98693.94;4840983;29;20085;-78
2021/07/19 05:47:58;;;;;;;9.73;7.95;;;;;;;27.47;48.96;98692.16;4856719;29;20136;-76
2021/07/19 05:50:25;;;;;;;13.23;7.88;;;;;;;27.63;47.72;98702.28;4856575;29;20425;-78
2021/07/19 05:52:54;;;;;;;16.35;7.60;;;;;;;27.60;47.84;98697.28;4826103;29;20057;-79
2021/07/19 05:55:21;;;;;;;10.35;6.60;;;;;;;27.65;46.62;98694.66;4841370;29;20144;-79
2021/07/19 05:57:48;;;;;;;16.88;6.75;;;;;;;27.44;46.00;98698.13;4836855;29;20072;-81
2021/07/19 06:00:18;;;;;;;10.95;6.65;;;;;;;27.45;46.18;98710.75;4841445;29;20046;-79
2021/07/19 06:02:47;;;;;;;6.45;5.80;;;;;;;27.47;46.20;98698.47;4827172;29;20529;-78
2021/07/19 06:05:14;;;;;;;12.20;6.35;;;;;;;27.74;45.87;98692.31;4840343;29;20133;-79
2021/07/19 06:07:41;;;;;;;12.55;5.85;;;;;;;27.86;44.88;98689.50;4825751;29;20060;-77
2021/07/19 06:10:14;;;;;;;7.30;4.72;;;;;;;27.83;44.64;98701.81;4812139;29;20081;-83
2021/07/19 06:12:42;;;;;;;7.90;5.72;;;;;;;27.77;44.90;98695.44;4858372;29;20054;-83
2021/07/19 06:15:10;;;;;;;5.25;4.82;;;;;;;27.95;44.89;98688.00;4841886;29;20216;-80
2021/07/19 06:17:38;;;;;;;8.07;5.20;;;;;;;28.09;44.75;98694.78;4810597;29;20060;-76
2021/07/19 06:24:50;;;;;;;6.57;5.35;;;;;;;28.46;42.80;98664.00;4800702;29;20565;-88
2021/07/19 06:27:36;;;;;;;9.50;5.25;;;;;;;28.59;43.17;98687.56;4810651;29;20121;-79
2021/07/19 06:47:28;;;;;;;4.93;4.18;;;;;;;28.79;40.17;98654.78;4698077;30;20454;-80
2021/07/19 06:50:22;;;;;;;3.97;3.60;;;;;;;28.97;40.43;98672.88;4646556;30;20058;-80
2021/07/19 06:53:58;;;;;;;;;;;;;;;;;;;;;
2021/07/19 06:56:37;;;;;;;7.07;4.43;;;;;;;29.00;39.94;98677.91;4669061;30;20080;-79
2021/07/19 06:59:11;;;;;;;6.88;4.38;;;;;;;28.66;40.06;98668.91;4748869;30;20100;-79
2021/07/19 07:02:20;;;;;;;8.20;4.05;;;;;;;28.61;40.87;98691.69;4741880;30;20149;-79
2021/07/19 07:05:39;;;;;;;4.20;3.80;;;;;;;28.69;38.59;98671.16;4753642;30;20056;-78
2021/07/19 07:08:09;;;;;;;4.20;3.45;;;;;;;29.09;38.66;98665.31;4766596;30;20069;-78
2021/07/19 07:10:35;;;;;;;5.03;4.07;;;;;;;29.10;39.93;98675.22;4767232;30;20063;-78
2021/07/19 07:13:12;;;;;;;6.40;4.20;;;;;;;28.63;41.33;98667.53;4789308;29;20094;-80
2021/07/19 07:16:02;;;;;;;;;;;;;;;;;;;;;
2021/07/19 07:19:04;;;;;;;5.93;4.07;;;;;;;29.14;40.41;98659.03;4815893;29;20070;-79
2021/07/19 07:22:35;;;;;;;4.97;4.47;;;;;;;29.70;39.43;98679.66;4835153;29;20467;-78
2021/07/19 07:25:18;;;;;;;5.05;4.10;;;;;;;29.70;38.96;98656.78;4872692;29;20080;-79
2021/07/19 07:28:34;;;;;;;7.57;4.03;;;;;;;29.93;39.04;98658.31;4848494;29;20096;-78
2021/07/19 07:31:25;;;;;;;7.70;4.35;;;;;;;29.41;39.41;98678.28;4881589;29;20076;-78
2021/07/19 07:34:28;;;;;;;4.82;3.65;;;;;;;29.37;38.04;98666.13;4858044;29;20494;-79
2021/07/19 07:41:29;;;;;;;7.95;3.80;;;;;;;30.27;37.66;98655.25;4846657;29;20053;-78
2021/07/19 07:47:44;;;;;;;4.28;3.85;;;;;;;30.96;36.14;98632.94;4843492;29;20068;-78
2021/07/19 07:50:39;;;;;;;5.78;3.80;;;;;;;30.87;36.29;98624.31;4859754;29;20144;-83
2021/07/19 07:53:14;;;;;;;4.90;4.25;;;;;;;31.09;36.06;98659.16;4889089;29;20053;-78
2021/07/19 07:55:48;;;;;;;5.07;3.97;;;;;;;30.85;36.55;98665.19;4872847;29;20158;-78
2021/07/19 07:58:16;;;;;;;4.40;4.10;;;;;;;31.15;36.67;98664.41;4843842;29;20132;-78
2021/07/19 08:00:42;;;;;;;4.55;4.03;;;;;;;30.66;37.10;98653.78;4830159;29;20128;-78
2021/07/19 08:03:09;;;;;;;6.10;4.07;;;;;;;30.83;37.05;98661.03;4845042;29;20062;-77
2021/07/19 08:05:35;;;;;;;4.57;3.85;;;;;;;30.81;37.13;98668.75;4875379;29;20053;-78
2021/07/19 08:08:01;;;;;;;3.75;3.45;;;;;;;30.65;36.59;98659.56;4845051;29;20065;-76
2021/07/19 08:10:31;;;;;;;3.97;3.67;;;;;;;30.90;36.45;98656.09;4875813;29;20136;-79
2021/07/19 08:12:59;;;;;;;4.10;3.70;;;;;;;31.10;36.25;98636.78;4860671;29;20061;-77
2021/07/19 08:15:25;;;;;;;7.05;3.80;;;;;;;31.35;36.18;98657.28;4875468;29;20045;-79
2021/07/19 08:17:51;;;;;;;4.45;3.97;;;;;;;30.92;36.51;98656.66;4860000;29;20137;-77
2021/07/19 08:20:19;;;;;;;10.13;3.75;;;;;;;30.89;36.65;98643.41;4844791;29;20061;-81
2021/07/19 08:22:47;;;;;;;4.22;3.70;;;;;;;31.07;36.63;98634.59;4860244;29;20046;-78
2021/07/19 08:25:15;;;;;;;8.43;3.67;;;;;;;31.23;35.94;98642.91;4845146;29;20057;-78
2021/07/19 08:27:41;;;;;;;3.88;3.58;;;;;;;31.37;35.78;98644.06;4860225;29;20064;-78
2021/07/19 08:30:09;;;;;;;4.00;3.70;;;;;;;31.53;35.66;98637.41;4860434;29;20045;-80
2021/07/19 08:32:35;;;;;;;4.88;3.80;;;;;;;31.58;35.46;98642.94;4860143;29;20042;-82
2021/07/19 08:35:02;;;;;;;4.15;3.65;;;;;;;31.64;35.48;98639.06;4844282;29;20062;-79
2021/07/19 08:37:29;;;;;;;7.15;3.63;;;;;;;31.74;35.04;98637.38;4859531;29;20501;-83
2021/07/19 08:39:59;;;;;;;8.98;4.03;;;;;;;31.73;35.40;98631.03;4859898;29;20053;-79
2021/07/19 08:42:25;;;;;;;5.45;3.35;;;;;;;31.49;35.29;98633.56;4859531;29;20049;-81
2021/07/19 08:44:54;;;;;;;4.47;3.63;;;;;;;31.57;34.98;98637.69;4859699;29;20529;-78
2021/07/19 08:47:21;;;;;;;7.10;4.05;;;;;;;31.74;34.44;98631.84;4860009;29;20049;-80
2021/07/19 08:49:46;;;;;;;3.95;3.55;;;;;;;32.03;33.68;98641.25;4890194;29;20208;-80
2021/07/19 08:52:18;;;;;;;3.90;3.60;;;;;;;32.33;33.27;98631.19;4891114;29;20631;-79
2021/07/19 08:54:47;;;;;;;5.10;3.83;;;;;;;32.44;32.86;98641.13;4874692;29;20082;-77
2021/07/19 08:57:14;;;;;;;4.10;3.47;;;;;;;32.69;32.88;98636.63;4889933;29;20054;-77
2021/07/19 08:59:40;;;;;;;5.20;4.20;;;;;;;33.27;32.33;98631.28;4843993;29;20057;-79
2021/07/19 09:02:07;;;;;;;4.03;3.63;;;;;;;33.22;32.06;98631.34;4860069;29;20053;-81
2021/07/19 09:04:36;;;;;;;5.40;3.72;;;;;;;33.41;31.65;98634.22;4874672;29;20045;-80
2021/07/19 09:07:03;;;;;;;4.07;3.63;;;;;;;33.14;31.68;98632.78;4874477;29;20042;-78
2021/07/19 09:09:30;;;;;;;5.70;3.13;;;;;;;33.01;31.46;98642.53;4874775;29;20144;-78
2021/07/19 09:11:57;;;;;;;5.05;3.70;;;;;;;32.54;32.92;98632.81;4890603;29;20425;-79
2021/07/19 09:14:23;;;;;;;11.95;4.03;;;;;;;32.84;32.79;98629.06;4874761;29;20105;-77
2021/07/19 09:16:53;;;;;;;4.53;3.65;;;;;;;33.56;32.12;98615.56;4874864;29;20049;-78
2021/07/19 09:19:24;;;;;;;3.40;3.20;;;;;;;33.71;31.12;98611.81;4859103;29;20109;-80
2021/07/19 09:21:58;;;;;;;6.47;4.03;;;;;;;33.88;31.56;98622.44;4880147;29;20038;-78
2021/07/19 09:24:27;;;;;;;4.75;3.80;;;;;;;33.91;31.36;98624.63;4862597;29;20052;-82
2021/07/19 09:26:53;;;;;;;4.28;3.80;;;;;;;33.19;31.90;98612.50;4891201;29;20053;-84
2021/07/19 09:29:23;;;;;;;7.47;4.13;;;;;;;32.70;33.00;98614.19;4861408;29;20049;-86
2021/07/19 09:31:55;;;;;;;5.35;3.95;;;;;;;32.11;33.42;98614.94;4860780;29;20047;-83
2021/07/19 09:34:24;;;;;;;4.47;3.90;;;;;;;32.06;33.77;98613.03;4860481;29;20522;-80
2021/07/19 09:37:00;;;;;;;4.60;3.70;;;;;;;32.69;32.91;98611.72;4843964;29;20049;-79
2021/07/19 09:39:33;;;;;;;4.22;3.80;;;;;;;33.24;31.81;98610.50;4861228;29;20049;-91
2021/07/19 09:42:30;;;;;;;4.25;3.67;;;;;;;33.85;31.28;98614.72;4873718;29;20064;-81
2021/07/19 10:04:17;;;;;;;;;;;;;;;;;;;;;
2021/07/19 10:11:48;;;;;;;4.72;3.35;;;;;;;34.34;27.75;98599.78;4817647;29;20494;-83
2021/07/19 10:14:28;;;;;;;8.30;3.13;;;;;;;35.13;26.83;98602.03;4785893;29;20117;-80
2021/07/19 10:16:58;;;;;;;7.93;3.80;;;;;;;35.14;26.91;98596.19;4771372;30;20047;-80
2021/07/19 10:19:29;;;;;;;3.58;3.03;;;;;;;34.26;27.33;98620.66;4808390;29;20175;-79
2021/07/19 10:21:58;;;;;;;4.68;2.63;;;;;;;34.07;27.78;98606.72;4857373;29;20050;-81
2021/07/19 10:24:26;;;;;;;8.35;3.08;;;;;;;34.95;26.77;98587.84;4843861;29;20062;-83
2021/07/19 10:26:59;;;;;;;4.15;2.75;;;;;;;35.93;25.28;98578.72;4841057;29;20156;-82
2021/07/19 10:29:28;;;;;;;5.43;3.22;;;;;;;36.44;24.77;98570.16;4841645;29;20492;-85
2021/07/19 10:32:22;;;;;;;4.78;3.33;;;;;;;36.88;24.48;98595.69;4826763;29;20042;-80
2021/07/19 10:35:54;;;;;;;6.30;2.78;;;;;;;37.25;23.81;98597.31;4858069;29;20053;-81
2021/07/19 10:39:21;;;;;;;3.45;3.15;;;;;;;37.64;23.40;98598.59;4829449;29;20098;-82
2021/07/19 10:45:16;;;;;;;3.25;2.95;;;;;;;37.60;22.55;98580.84;4850347;29;20540;-82
2021/07/19 10:47:53;;;;;;;3.72;2.80;;;;;;;37.29;22.65;98580.78;4859478;29;20137;-81
2021/07/19 10:50:28;;;;;;;4.72;2.80;;;;;;;37.58;22.96;98577.56;4860332;29;20068;-84
2021/07/19 10:52:59;;;;;;;3.67;2.90;;;;;;;37.86;21.86;98564.25;4860063;29;20574;-82
2021/07/19 10:56:25;;;;;;;3.75;2.40;;;;;;;37.75;21.69;98558.13;4835287;29;20053;-84
2021/07/19 11:00:04;;;;;;;5.28;2.50;;;;;;;39.10;21.55;98579.84;4852281;29;20061;-85
2021/07/19 11:03:03;;;;;;;3.20;2.53;;;;;;;39.46;20.09;98584.31;4860397;29;20046;-84
2021/07/19 11:06:00;;;;;;;3.92;2.72;;;;;;;38.59;20.52;98573.91;4839880;29;20053;-82
2021/07/19 11:09:34;;;;;;;2.78;2.50;;;;;;;38.74;20.86;98550.25;4822153;29;20046;-86
2021/07/19 11:12:21;;;;;;;8.40;2.45;;;;;;;39.06;20.66;98553.72;4854282;29;20475;-80
2021/07/19 11:14:55;;;;;;;3.10;2.80;;;;;;;39.68;20.09;98566.44;4859006;29;20069;-78
2021/07/19 11:17:27;;;;;;;4.70;2.70;;;;;;;38.85;20.38;98559.97;4859434;29;20095;-82
2021/07/19 11:19:56;;;;;;;4.78;3.05;;;;;;;39.11;20.54;98567.53;4844096;29;20053;-79
2021/07/19 11:22:25;;;;;;;3.28;2.88;;;;;;;39.60;20.59;98573.72;4844016;29;20570;-82
2021/07/19 11:25:15;;;;;;;2.70;2.40;;;;;;;39.89;19.61;98563.78;4843807;29;20049;-80
2021/07/19 11:27:44;;;;;;;5.10;2.90;;;;;;;40.03;19.60;98556.81;4858950;29;20057;-82
2021/07/19 11:30:56;;;;;;;4.00;2.45;;;;;;;39.87;19.81;98532.50;4844375;29;20046;-87
2021/07/19 11:33:37;;;;;;;3.10;2.80;;;;;;;39.39;20.42;98559.63;4836657;29;20057;-87
2021/07/19 11:36:29;;;;;;;2.92;2.70;;;;;;;39.49;20.27;98569.63;4864908;29;20140;-87
2021/07/19 11:38:56;;;;;;;3.00;2.80;;;;;;;40.10;20.34;98561.88;4875535;29;20049;-87
2021/07/19 11:41:23;;;;;;;3.38;2.80;;;;;;;40.30;19.50;98552.72;4872100;29;20050;-87
2021/07/19 11:43:51;;;;;;;2.88;2.67;;;;;;;40.73;19.61;98570.44;4853264;29;20063;-86
2021/07/19 11:46:29;;;;;;;;;;;;;;;40.86;19.16;98566.56;4844724;29;20450;-85
2021/07/19 11:49:06;;;;;;;4.00;2.75;;;;;;;41.54;18.56;98554.25;4843969;29;19920;-87
2021/07/19 11:51:33;;;;;;;4.10;2.50;;;;;;;42.09;17.97;98545.34;4829550;29;20425;-89
2021/07/19 11:53:59;;;;;;;4.47;2.78;;;;;;;42.42;17.07;98558.44;4843464;29;20045;-87
2021/07/19 11:56:30;;;;;;;2.67;2.47;;;;;;;41.78;17.56;98553.47;4843901;29;20513;-86
2021/07/19 11:58:59;;;;;;;4.15;2.90;;;;;;;41.69;18.19;98554.41;4814365;29;20046;-87
2021/07/19 12:01:32;;;;;;;4.78;2.90;;;;;;;41.68;17.81;98537.94;4844931;29;20065;-88
2021/07/19 12:04:00;;;;;;;4.60;2.78;;;;;;;41.83;17.95;98551.31;4844528;29;20471;-83
2021/07/19 12:06:27;;;;;;;7.35;2.92;;;;;;;41.89;17.62;98551.88;4849857;29;20140;-81
2021/07/19 12:09:00;;;;;;;4.78;2.83;;;;;;;42.17;17.71;98544.41;4853536;29;20050;-83
2021/07/19 12:11:26;;;;;;;5.53;2.80;;;;;;;42.29;17.15;98534.38;4828073;29;20056;-84
2021/07/19 12:14:01;;;;;;;8.43;3.10;;;;;;;41.11;18.45;98536.66;4843369;29;20050;-85
2021/07/19 12:16:41;;;;;;;8.35;3.10;;;;;;;40.53;18.90;98525.22;4858238;29;20144;-87
2021/07/19 12:19:14;;;;;;;4.78;3.03;;;;;;;40.71;18.03;98509.16;4812188;29;20062;-86
2021/07/19 12:22:56;;;;;;;;;;;;;;;;;;;;;
2021/07/19 12:40:09;;;;;;;8.82;2.80;;;;;;;41.81;17.19;98524.72;4809986;29;20144;-86
2021/07/19 12:44:03;;;;;;;3.95;3.00;;;;;;;41.00;17.64;98510.25;4825064;29;20102;-83
2021/07/19 12:48:08;;;;;;;;;;;;;;;;;;;;;
2021/07/19 13:04:49;;;;;;;;;;;;;;;;;;;;;
2021/07/19 13:13:11;;;;;;;4.63;2.70;;;;;;;43.85;15.25;98476.16;4783456;30;20134;-84
2021/07/19 13:16:42;;;;;;;;;;;;;;;;;;;;;
2021/07/19 13:29:48;;;;;;;6.07;3.20;;;;;;;45.64;15.33;98471.53;4659918;30;20548;-84
2021/07/19 13:34:15;;;;;;;7.38;3.15;;;;;;;45.57;14.87;98501.66;4619737;30;20070;-84
2021/07/19 13:38:16;;;;;;;3.10;2.88;;;;;;;45.18;15.10;98481.97;4614461;31;20055;-81
2021/07/19 13:42:18;;;;;;;;;;;;;;;;;;;;;
2021/07/19 13:46:41;;;;;;;;;;;;;;;;;;;;;
2021/07/19 13:50:50;;;;;;;;;;;;;;;;;;;;;
2021/07/19 13:58:05;;;;;;;4.13;3.50;;;;;;;46.31;15.29;98493.63;4627795;30;20054;-74
2021/07/19 14:00:33;;;;;;;4.68;3.40;;;;;;;46.53;14.66;98494.75;4694881;30;20066;-75
2021/07/19 14:03:01;;;;;;;3.30;2.85;;;;;;;46.17;15.05;98493.38;4714922;29;20079;-75
2021/07/19 14:05:27;;;;;;;5.88;2.92;;;;;;;46.53;15.08;98493.91;4848810;29;20049;-76
2021/07/19 14:07:53;;;;;;;7.28;3.13;;;;;;;46.08;14.37;98493.66;4841629;29;20049;-75
2021/07/19 14:10:20;;;;;;;6.07;2.90;;;;;;;43.85;16.20;98478.16;4826842;29;20073;-75